Time;durP1;ratioP1;P1;durP2;ratioP2;P2;SDS_P1;SDS_P2;PMS_P1;PMS_P2;Temp;Humidity;BMP_temperature;BMP_pressure;BME280_temperature;BME280_humidity;BME280_pressure;Samples;Min_cycle;Max_cycle;Signal;HPM_P1;HPM_P2
2021/11/03 00:00:58;;;;;;;;;;;;;;;;;;5086679;28;19954;-59
2021/11/03 00:03:25;;;;;;;;;;;;;;;;;;5083723;28;20024;-59
2021/11/03 00:05:52;;;;;;;;;;;;;;;;;;5082692;28;20384;-61
2021/11/03 00:08:19;;;;;;;;;;;;;;;;;;5085114;28;19924;-55
2021/11/03 00:10:46;;;;;;;;;;;;;;;;;;5078473;28;19924;-59
2021/11/03 00:13:13;;;;;;;;;;;;;;;;;;5088269;28;20030;-58
2021/11/03 00:15:40;;;;;;;;;;;;;;;;;;5086874;28;19924;-59
2021/11/03 00:18:07;;;;;;;;;;;;;;;;;;5084085;28;19931;-56
2021/11/03 00:20:34;;;;;;;;;;;;;;;;;;5080243;28;20304;-60
2021/11/03 00:23:01;;;;;;;;;;;;;;;;;;5083502;28;19930;-58
2021/11/03 00:25:28;;;;;;;;;;;;;;;;;;5082657;28;19925;-58
2021/11/03 00:27:55;;;;;;;;;;;;;;;;;;5087675;28;19924;-57
2021/11/03 00:30:22;;;;;;;;;;;;;;;;;;5083911;28;20402;-56
2021/11/03 00:32:49;;;;;;;;;;;;;;;;;;5087609;28;19938;-60
2021/11/03 00:35:16;;;;;;;;;;;;;;;;;;5081310;28;20304;-59
2021/11/03 00:37:43;;;;;;;;;;;;;;;;;;5087988;28;19931;-56
2021/11/03 00:40:10;;;;;;;;;;;;;;;;;;5082449;28;19924;-59
2021/11/03 00:42:37;;;;;;;;;;;;;;;;;;5086975;28;19924;-60
2021/11/03 00:45:04;;;;;;;;;;;;;;;;;;5083026;28;19928;-57
2021/11/03 00:47:31;;;;;;;;;;;;;;;;;;5083123;28;19931;-60
2021/11/03 00:49:58;;;;;;;;;;;;;;;;;;5084411;28;20380;-60
2021/11/03 00:52:28;;;;;;;;;;;;;;;;;;5090174;28;20404;-60
2021/11/03 00:54:55;;;;;;;;;;;;;;;;;;5089502;28;20315;-56
2021/11/03 00:57:22;;;;;;;;;;;;;;;;;;5087382;28;20007;-57
2021/11/03 00:59:49;;;;;;;;;;;;;;;;;;5088859;28;19932;-58
2021/11/03 01:02:16;;;;;;;;;;;;;;;;;;5088117;28;19931;-56
2021/11/03 01:04:43;;;;;;;;;;;;;;;;;;5091419;28;20383;-59
2021/11/03 01:07:10;;;;;;;;;;;;;;;;;;5085589;28;19924;-60
2021/11/03 01:09:37;;;;;;;;;;;;;;;;;;5088595;28;19924;-59
2021/11/03 01:12:04;;;;;;;;;;;;;;;;;;5092194;28;19970;-58
2021/11/03 01:14:31;;;;;;;;;;;;;;;;;;5081861;28;20285;-58
2021/11/03 01:16:58;;;;;;;;;;;;;;;;;;5088496;28;19935;-58
2021/11/03 01:19:25;;;;;;;;;;;;;;;;;;5082734;28;19981;-59
2021/11/03 01:21:52;;;;;;;;;;;;;;;;;;5088982;28;19924;-59
2021/11/03 01:24:19;;;;;;;;;;;;;;;;;;5089654;28;20377;-60
2021/11/03 01:26:46;;;;;;;;;;;;;;;;;;5090473;28;20403;-59
2021/11/03 01:29:13;;;;;;;;;;;;;;;;;;5086314;28;19925;-60
2021/11/03 01:31:40;;;;;;;;;;;;;;;;;;5087533;28;19924;-60
2021/11/03 01:34:07;;;;;;;;;;;;;;;;;;5086760;28;19961;-55
2021/11/03 01:36:34;;;;;;;;;;;;;;;;;;5088373;28;19935;-59
2021/11/03 01:39:01;;;;;;;;;;;;;;;;;;5086725;28;19924;-58
2021/11/03 01:41:28;;;;;;;;;;;;;;;;;;5084609;28;19928;-59
2021/11/03 01:43:55;;;;;;;;;;;;;;;;;;5086919;28;19925;-57
2021/11/03 01:46:22;;;;;;;;;;;;;;;;;;5087936;28;19931;-58
2021/11/03 01:48:49;;;;;;;;;;;;;;;;;;5083517;28;20071;-61
2021/11/03 01:51:16;;;;;;;;;;;;;;;;;;5079933;28;19924;-60
2021/11/03 01:53:42;;;;;;;;;;;;;;;;;;5091441;28;19947;-61
2021/11/03 01:56:09;;;;;;;;;;;;;;;;;;5085670;28;19929;-60
2021/11/03 01:58:36;;;;;;;;;;;;;;;;;;5086538;28;19931;-56
2021/11/03 02:01:03;;;;;;;;;;;;;;;;;;5085346;28;19931;-58
2021/11/03 02:03:30;;;;;;;;;;;;;;;;;;5087669;28;20012;-56
2021/11/03 02:05:57;;;;;;;;;;;;;;;;;;5089675;28;19924;-58
2021/11/03 02:08:24;;;;;;;;;;;;;;;;;;5087236;28;20291;-57
2021/11/03 02:10:51;;;;;;;;;;;;;;;;;;5087368;28;19924;-59
2021/11/03 02:13:18;;;;;;;;;;;;;;;;;;5083005;28;19934;-58
2021/11/03 02:15:45;;;;;;;;;;;;;;;;;;5091092;28;20017;-57
2021/11/03 02:18:12;;;;;;;;;;;;;;;;;;5087972;28;20015;-58
2021/11/03 02:20:39;;;;;;;;;;;;;;;;;;5083779;28;19924;-60
2021/11/03 02:23:06;;;;;;;;;;;;;;;;;;5081070;28;19928;-57
2021/11/03 02:25:33;;;;;;;;;;;;;;;;;;5085266;28;19926;-61
2021/11/03 02:28:00;;;;;;;;;;;;;;;;;;5086603;28;20002;-56
2021/11/03 02:30:27;;;;;;;;;;;;;;;;;;5083342;28;19924;-58
2021/11/03 02:32:54;;;;;;;;;;;;;;;;;;5088333;28;19924;-58
2021/11/03 02:35:21;;;;;;;;;;;;;;;;;;5087767;28;19924;-57
2021/11/03 02:37:48;;;;;;;;;;;;;;;;;;5084755;28;20269;-59
2021/11/03 02:40:15;;;;;;;;;;;;;;;;;;5085215;28;19924;-56
2021/11/03 02:42:42;;;;;;;;;;;;;;;;;;5085102;28;19924;-59
2021/11/03 02:45:09;;;;;;;;;;;;;;;;;;5081211;28;19928;-56
2021/11/03 02:47:36;;;;;;;;;;;;;;;;;;5079338;28;19935;-59
2021/11/03 02:50:03;;;;;;;;;;;;;;;;;;5085094;28;20395;-55
2021/11/03 02:52:30;;;;;;;;;;;;;;;;;;5085653;28;20314;-57
2021/11/03 02:54:57;;;;;;;;;;;;;;;;;;5081397;28;19924;-55
2021/11/03 02:57:25;;;;;;;;;;;;;;;;;;5089726;28;19924;-57
2021/11/03 02:59:52;;;;;;;;;;;;;;;;;;5085151;28;19924;-55
2021/11/03 03:02:19;;;;;;;;;;;;;;;;;;5084928;28;19935;-57
2021/11/03 03:04:46;;;;;;;;;;;;;;;;;;5084896;28;19931;-57
2021/11/03 03:07:13;;;;;;;;;;;;;;;;;;5085792;28;19924;-58
2021/11/03 03:09:40;;;;;;;;;;;;;;;;;;5083492;28;20019;-58
2021/11/03 03:12:08;;;;;;;;;;;;;;;;;;5084358;28;19928;-59
2021/11/03 03:14:36;;;;;;;;;;;;;;;;;;5083223;28;19924;-58
2021/11/03 03:17:03;;;;;;;;;;;;;;;;;;5087893;28;19989;-60
2021/11/03 03:19:30;;;;;;;;;;;;;;;;;;5083511;28;20392;-55
2021/11/03 03:21:57;;;;;;;;;;;;;;;;;;5084009;28;19964;-59
2021/11/03 03:24:24;;;;;;;;;;;;;;;;;;5078872;28;19931;-57
2021/11/03 03:26:51;;;;;;;;;;;;;;;;;;5082749;28;19968;-55
2021/11/03 03:29:18;;;;;;;;;;;;;;;;;;5086135;28;19935;-58
2021/11/03 03:31:45;;;;;;;;;;;;;;;;;;5081415;28;19935;-57
2021/11/03 03:34:12;;;;;;;;;;;;;;;;;;5086200;28;20392;-57
2021/11/03 03:36:38;;;;;;;;;;;;;;;;;;5088623;28;19950;-59
2021/11/03 03:39:05;;;;;;;;;;;;;;;;;;5081800;28;19932;-61
2021/11/03 03:41:32;;;;;;;;;;;;;;;;;;5088207;28;19946;-57
2021/11/03 03:43:59;;;;;;;;;;;;;;;;;;5099141;22;19973;-68
2021/11/03 03:46:26;;;;;;;;;;;;;;;;;;5090798;28;20026;-67
2021/11/03 03:48:53;;;;;;;;;;;;;;;;;;5093372;28;19924;-67
2021/11/03 03:51:20;;;;;;;;;;;;;;;;;;5086630;28;20257;-67
2021/11/03 03:53:48;;;;;;;;;;;;;;;;;;5093997;28;19931;-67
2021/11/03 03:56:15;;;;;;;;;;;;;;;;;;5093155;28;19924;-67
2021/11/03 03:58:42;;;;;;;;;;;;;;;;;;5093694;28;20033;-69
2021/11/03 04:01:09;;;;;;;;;;;;;;;;;;5093490;28;19924;-66
2021/11/03 04:03:35;;;;;;;;;;;;;;;;;;5090745;28;20414;-67
2021/11/03 04:06:03;;;;;;;;;;;;;;;;;;5094909;28;20303;-65
2021/11/03 04:08:30;;;;;;;;;;;;;;;;;;5088404;28;19977;-68
2021/11/03 04:10:57;;;;;;;;;;;;;;;;;;5090339;28;19924;-67
2021/11/03 04:13:24;;;;;;;;;;;;;;;;;;5094218;28;20012;-66
2021/11/03 04:15:51;;;;;;;;;;;;;;;;;;5097281;28;20399;-67
2021/11/03 04:18:18;;;;;;;;;;;;;;;;;;5092180;28;19924;-67
2021/11/03 04:20:44;;;;;;;;;;;;;;;;;;5096702;28;19924;-66
2021/11/03 04:23:11;;;;;;;;;;;;;;;;;;5099630;28;19930;-67
2021/11/03 04:25:38;;;;;;;;;;;;;;;;;;5091096;28;19931;-67
2021/11/03 04:28:05;;;;;;;;;;;;;;;;;;5091634;28;19935;-67
2021/11/03 04:30:32;;;;;;;;;;;;;;;;;;5086169;28;20280;-67
2021/11/03 04:33:01;;;;;;;;;;;;;;;;;;5092558;28;21448;-66
2021/11/03 04:35:28;;;;;;;;;;;;;;;;;;5090406;28;19924;-66
2021/11/03 04:37:55;;;;;;;;;;;;;;;;;;5090997;28;19928;-67
2021/11/03 04:40:22;;;;;;;;;;;;;;;;;;5086423;28;19924;-67
2021/11/03 04:42:49;;;;;;;;;;;;;;;;;;5089224;28;19924;-68
2021/11/03 04:45:16;;;;;;;;;;;;;;;;;;5090472;28;19931;-67
2021/11/03 04:47:43;;;;;;;;;;;;;;;;;;5093172;28;19924;-67
2021/11/03 04:50:10;;;;;;;;;;;;;;;;;;5093866;28;19924;-67
2021/11/03 04:52:37;;;;;;;;;;;;;;;;;;5083143;28;19924;-67
2021/11/03 04:55:04;;;;;;;;;;;;;;;;;;5089007;28;19924;-67
2021/11/03 04:57:31;;;;;;;;;;;;;;;;;;5088548;28;19946;-67
2021/11/03 05:00:01;;;;;;;;;;;;;;;;;;5091399;28;19981;-67
2021/11/03 05:02:29;;;;;;;;;;;;;;;;;;5096564;28;20341;-67
2021/11/03 05:04:56;;;;;;;;;;;;;;;;;;5091346;28;19938;-67
2021/11/03 05:07:23;;;;;;;;;;;;;;;;;;5099917;28;19925;-67
2021/11/03 05:09:49;;;;;;;;;;;;;;;;;;5099120;28;20295;-67
2021/11/03 05:12:16;;;;;;;;;;;;;;;;;;5087304;28;19931;-68
2021/11/03 05:14:43;;;;;;;;;;;;;;;;;;5096522;28;19930;-68
2021/11/03 05:17:10;;;;;;;;;;;;;;;;;;5090627;28;20398;-68
2021/11/03 05:19:37;;;;;;;;;;;;;;;;;;5090755;28;20304;-67
2021/11/03 05:22:05;;;;;;;;;;;;;;;;;;5090251;28;19947;-67
2021/11/03 05:24:32;;;;;;;;;;;;;;;;;;5088800;28;20261;-69
2021/11/03 05:26:59;;;;;;;;;;;;;;;;;;5091267;28;19928;-66
2021/11/03 05:29:26;;;;;;;;;;;;;;;;;;5084945;28;19932;-67
2021/11/03 05:31:53;;;;;;;;;;;;;;;;;;5096918;28;20019;-67
2021/11/03 05:34:20;;;;;;;;;;;;;;;;;;5103485;28;19932;-67
2021/11/03 05:36:47;;;;;;;;;;;;;;;;;;5098965;28;19924;-67
2021/11/03 05:39:14;;;;;;;;;;;;;;;;;;5095057;28;19924;-67
2021/11/03 05:41:41;;;;;;;;;;;;;;;;;;5095339;28;19932;-68
2021/11/03 05:44:08;;;;;;;;;;;;;;;;;;5096159;28;20283;-67
2021/11/03 05:46:35;;;;;;;;;;;;;;;;;;5095474;28;19930;-68
2021/11/03 05:49:05;;;;;;;;;;;;;;;;;;5098797;28;19931;-67
2021/11/03 05:51:32;;;;;;;;;;;;;;;;;;5098126;28;19931;-67
2021/11/03 05:53:59;;;;;;;;;;;;;;;;;;5093159;28;20406;-68
2021/11/03 05:56:26;;;;;;;;;;;;;;;;;;5088924;28;19928;-67
2021/11/03 05:58:53;;;;;;;;;;;;;;;;;;5084561;28;19931;-67
2021/11/03 06:01:20;;;;;;;;;;;;;;;;;;5082425;28;19924;-68
2021/11/03 06:03:47;;;;;;;;;;;;;;;;;;5077564;28;20668;-67
2021/11/03 06:06:14;;;;;;;;;;;;;;;;;;5074353;28;20016;-67
2021/11/03 06:08:41;;;;;;;;;;;;;;;;;;5083209;28;19924;-69
2021/11/03 06:11:09;;;;;;;;;;;;;;;;;;5083192;28;20369;-67
2021/11/03 06:13:38;;;;;;;;;;;;;;;;;;5080118;28;20292;-67
2021/11/03 06:16:05;;;;;;;;;;;;;;;;;;5080568;28;19978;-66
2021/11/03 06:18:32;;;;;;;;;;;;;;;;;;5081987;28;20195;-68
2021/11/03 06:20:59;;;;;;;;;;;;;;;;;;5083311;28;20406;-67
2021/11/03 06:23:26;;;;;;;;;;;;;;;;;;5088801;28;19928;-67
2021/11/03 06:25:53;;;;;;;;;;;;;;;;;;5084799;28;19924;-67
2021/11/03 06:28:20;;;;;;;;;;;;;;;;;;5089381;28;19924;-67
2021/11/03 06:30:47;;;;;;;;;;;;;;;;;;5084925;28;20549;-68
2021/11/03 06:33:14;;;;;;;;;;;;;;;;;;5094379;28;20324;-67
2021/11/03 06:35:41;;;;;;;;;;;;;;;;;;5090824;28;20020;-68
2021/11/03 06:38:09;;;;;;;;;;;;;;;;;;5087621;28;20019;-67
2021/11/03 06:40:36;;;;;;;;;;;;;;;;;;5079931;28;19928;-67
2021/11/03 06:43:03;;;;;;;;;;;;;;;;;;5085555;28;20445;-67
2021/11/03 06:45:30;;;;;;;;;;;;;;;;;;5079423;28;19931;-67
2021/11/03 06:47:57;;;;;;;;;;;;;;;;;;5086562;28;19977;-67
2021/11/03 06:50:24;;;;;;;;;;;;;;;;;;5078231;28;19924;-66
2021/11/03 06:52:52;;;;;;;;;;;;;;;;;;5088346;28;19931;-67
2021/11/03 06:55:19;;;;;;;;;;;;;;;;;;5079983;28;19932;-67
2021/11/03 06:57:45;;;;;;;;;;;;;;;;;;5088549;28;19930;-66
2021/11/03 07:00:13;;;;;;;;;;;;;;;;;;5084906;28;19924;-66
2021/11/03 07:02:40;;;;;;;;;;;;;;;;;;5075491;28;19928;-67
2021/11/03 07:05:07;;;;;;;;;;;;;;;;;;5083315;28;19939;-66
2021/11/03 07:07:34;;;;;;;;;;;;;;;;;;5077699;28;19932;-67
2021/11/03 07:10:01;;;;;;;;;;;;;;;;;;5083449;28;19935;-66
2021/11/03 07:12:28;;;;;;;;;;;;;;;;;;5078919;28;20307;-66
2021/11/03 07:14:55;;;;;;;;;;;;;;;;;;5079464;28;19928;-67
2021/11/03 07:17:22;;;;;;;;;;;;;;;;;;5079975;28;20010;-67
2021/11/03 07:19:49;;;;;;;;;;;;;;;;;;5080968;28;19924;-67
2021/11/03 07:22:16;;;;;;;;;;;;;;;;;;5082053;28;20018;-67
2021/11/03 07:24:43;;;;;;;;;;;;;;;;;;5084380;28;19928;-66
2021/11/03 07:27:10;;;;;;;;;;;;;;;;;;5083476;28;20286;-68
2021/11/03 07:29:40;;;;;;;;;;;;;;;;;;5083121;28;19928;-68
2021/11/03 07:32:07;;;;;;;;;;;;;;;;;;5086608;28;19967;-67
2021/11/03 07:34:34;;;;;;;;;;;;;;;;;;5086176;28;19963;-68
2021/11/03 07:37:01;;;;;;;;;;;;;;;;;;5084586;28;20308;-68
2021/11/03 07:39:28;;;;;;;;;;;;;;;;;;5081548;28;19924;-68
2021/11/03 07:41:55;;;;;;;;;;;;;;;;;;5087383;28;19924;-68
2021/11/03 07:44:22;;;;;;;;;;;;;;;;;;5085276;28;19924;-67
2021/11/03 07:46:49;;;;;;;;;;;;;;;;;;5084456;28;19924;-68
2021/11/03 07:49:16;;;;;;;;;;;;;;;;;;5081102;28;20011;-67
2021/11/03 07:51:43;;;;;;;;;;;;;;;;;;5081339;28;19930;-67
2021/11/03 07:54:10;;;;;;;;;;;;;;;;;;5085400;28;19924;-68
2021/11/03 07:56:37;;;;;;;;;;;;;;;;;;5078208;28;19935;-68
2021/11/03 07:59:03;;;;;;;;;;;;;;;;;;5085839;28;19930;-68
2021/11/03 08:01:30;;;;;;;;;;;;;;;;;;5085865;28;20419;-67
2021/11/03 08:03:57;;;;;;;;;;;;;;;;;;5077885;28;19925;-68
2021/11/03 08:06:25;;;;;;;;;;;;;;;;;;5074725;28;19950;-67
2021/11/03 08:08:57;;;;;;;;;;;;;;;;;;5082582;28;20388;-68
2021/11/03 08:11:27;;;;;;;;;;;;;;;;;;5082837;28;19927;-68
2021/11/03 08:13:54;;;;;;;;;;;;;;;;;;5085893;28;19928;-66
2021/11/03 08:16:21;;;;;;;;;;;;;;;;;;5076856;28;19985;-66
2021/11/03 08:18:48;;;;;;;;;;;;;;;;;;5081990;28;19924;-66
2021/11/03 08:21:15;;;;;;;;;;;;;;;;;;5078979;28;20276;-66
2021/11/03 08:23:42;;;;;;;;;;;;;;;;;;5080558;28;20287;-66
2021/11/03 08:26:08;;;;;;;;;;;;;;;;;;5082565;28;19924;-66
2021/11/03 08:28:35;;;;;;;;;;;;;;;;;;5077721;28;19924;-68
2021/11/03 08:31:02;;;;;;;;;;;;;;;;;;5078391;28;19931;-66
2021/11/03 08:33:29;;;;;;;;;;;;;;;;;;5081109;28;19924;-69
2021/11/03 08:35:57;;;;;;;;;;;;;;;;;;5080002;28;20445;-68
2021/11/03 08:38:23;;;;;;;;;;;;;;;;;;5081234;28;19932;-68
2021/11/03 08:40:50;;;;;;;;;;;;;;;;;;5083893;28;19924;-66
2021/11/03 08:43:18;;;;;;;;;;;;;;;;;;5082865;28;19924;-68
2021/11/03 08:45:45;;;;;;;;;;;;;;;;;;5079536;28;19987;-67
2021/11/03 08:48:12;;;;;;;;;;;;;;;;;;5081550;28;20023;-66
2021/11/03 08:50:39;;;;;;;;;;;;;;;;;;5087192;28;19924;-66
2021/11/03 08:53:06;;;;;;;;;;;;;;;;;;5085928;28;19928;-66
2021/11/03 08:55:33;;;;;;;;;;;;;;;;;;5081248;28;19928;-68
2021/11/03 08:58:00;;;;;;;;;;;;;;;;;;5078049;28;19928;-68
2021/11/03 09:00:27;;;;;;;;;;;;;;;;;;5083276;28;19928;-66
2021/11/03 09:02:54;;;;;;;;;;;;;;;;;;5076656;28;19925;-69
2021/11/03 09:05:21;;;;;;;;;;;;;;;;;;5076810;28;21353;-68
2021/11/03 09:07:48;;;;;;;;;;;;;;;;;;5084631;28;20426;-68
2021/11/03 09:10:14;;;;;;;;;;;;;;;;;;5086726;28;19924;-68
2021/11/03 09:12:41;;;;;;;;;;;;;;;;;;5086838;28;19924;-67
2021/11/03 09:15:08;;;;;;;;;;;;;;;;;;5089255;28;20344;-67
2021/11/03 09:17:35;;;;;;;;;;;;;;;;;;5078173;28;19946;-67
2021/11/03 09:20:02;;;;;;;;;;;;;;;;;;5087199;28;19940;-67
2021/11/03 09:22:29;;;;;;;;;;;;;;;;;;5090515;28;20014;-67
2021/11/03 09:24:57;;;;;;;;;;;;;;;;;;5092289;28;19924;-67
2021/11/03 09:27:23;;;;;;;;;;;;;;;;;;5089772;28;19935;-67
2021/11/03 09:29:50;;;;;;;;;;;;;;;;;;5081174;28;19931;-66
2021/11/03 09:32:18;;;;;;;;;;;;;;;;;;5085353;28;20289;-67
2021/11/03 09:34:45;;;;;;;;;;;;;;;;;;5091306;28;19924;-69
2021/11/03 09:37:12;;;;;;;;;;;;;;;;;;5079484;28;19932;-68
2021/11/03 09:39:39;;;;;;;;;;;;;;;;;;5083151;28;19932;-68
2021/11/03 09:42:06;;;;;;;;;;;;;;;;;;5088050;28;19924;-67
2021/11/03 09:44:33;;;;;;;;;;;;;;;;;;5105816;22;20018;-61
2021/11/03 09:47:00;;;;;;;;;;;;;;;;;;5090894;28;19924;-61
2021/11/03 09:49:29;;;;;;;;;;;;;;;;;;5089710;28;20318;-60
2021/11/03 09:51:56;;;;;;;;;;;;;;;;;;5090546;28;19932;-60
2021/11/03 09:54:23;;;;;;;;;;;;;;;;;;5090428;28;20308;-62
2021/11/03 09:56:50;;;;;;;;;;;;;;;;;;5088001;28;20365;-59
2021/11/03 09:59:17;;;;;;;;;;;;;;;;;;5087510;28;20272;-60
2021/11/03 10:01:44;;;;;;;;;;;;;;;;;;5089118;28;20105;-61
2021/11/03 10:04:12;;;;;;;;;;;;;;;;;;5092129;28;19976;-58
2021/11/03 10:06:39;;;;;;;;;;;;;;;;;;5084847;28;19939;-57
2021/11/03 10:09:06;;;;;;;;;;;;;;;;;;5088847;28;19928;-58
2021/11/03 10:11:33;;;;;;;;;;;;;;;;;;5088960;28;19931;-61
2021/11/03 10:14:00;;;;;;;;;;;;;;;;;;5085703;28;20018;-61
2021/11/03 10:16:26;;;;;;;;;;;;;;;;;;5084290;28;19928;-57
2021/11/03 10:18:54;;;;;;;;;;;;;;;;;;5076229;28;20427;-61
2021/11/03 10:21:21;;;;;;;;;;;;;;;;;;5083278;28;19936;-61
2021/11/03 10:23:48;;;;;;;;;;;;;;;;;;5086994;28;19931;-59
2021/11/03 10:26:15;;;;;;;;;;;;;;;;;;5091437;28;19925;-58
2021/11/03 10:28:42;;;;;;;;;;;;;;;;;;5089394;28;19977;-59
2021/11/03 10:31:09;;;;;;;;;;;;;;;;;;5088880;28;19924;-61
2021/11/03 10:33:36;;;;;;;;;;;;;;;;;;5088142;28;20346;-60
2021/11/03 10:36:03;;;;;;;;;;;;;;;;;;5089260;28;19979;-58
2021/11/03 10:38:30;;;;;;;;;;;;;;;;;;5089135;28;19924;-60
2021/11/03 10:40:57;;;;;;;;;;;;;;;;;;5084192;28;19928;-58
2021/11/03 10:43:24;;;;;;;;;;;;;;;;;;5088462;28;19930;-61
2021/11/03 10:45:51;;;;;;;;;;;;;;;;;;5088822;28;19931;-61
2021/11/03 10:48:18;;;;;;;;;;;;;;;;;;5084571;28;20014;-59
2021/11/03 10:50:45;;;;;;;;;;;;;;;;;;5088119;28;19924;-59
2021/11/03 10:53:12;;;;;;;;;;;;;;;;;;5088062;28;19924;-59
2021/11/03 10:55:39;;;;;;;;;;;;;;;;;;5089841;28;19948;-62
2021/11/03 10:58:06;;;;;;;;;;;;;;;;;;5088514;28;20351;-61
2021/11/03 11:00:33;;;;;;;;;;;;;;;;;;5094628;28;19931;-60
2021/11/03 11:03:00;;;;;;;;;;;;;;;;;;5094171;28;20377;-58
2021/11/03 11:05:26;;;;;;;;;;;;;;;;;;5096685;28;19981;-62
2021/11/03 11:07:54;;;;;;;;;;;;;;;;;;5090469;28;19924;-60
2021/11/03 11:10:21;;;;;;;;;;;;;;;;;;5089906;28;19924;-59
2021/11/03 11:12:48;;;;;;;;;;;;;;;;;;5088239;28;20188;-60
2021/11/03 11:15:15;;;;;;;;;;;;;;;;;;5091844;28;19962;-61
2021/11/03 11:17:45;;;;;;;;;;;;;;;;;;5087846;28;19977;-61
2021/11/03 11:20:13;;;;;;;;;;;;;;;;;;5082049;28;19928;-60
2021/11/03 11:22:40;;;;;;;;;;;;;;;;;;5089112;28;19924;-59
2021/11/03 11:25:07;;;;;;;;;;;;;;;;;;5093631;28;20002;-60
2021/11/03 11:27:34;;;;;;;;;;;;;;;;;;5090662;28;19928;-60
2021/11/03 11:30:01;;;;;;;;;;;;;;;;;;5085330;28;19932;-61
2021/11/03 11:32:28;;;;;;;;;;;;;;;;;;5090573;28;20383;-61
2021/11/03 11:34:55;;;;;;;;;;;;;;;;;;5089314;28;19928;-60
2021/11/03 11:37:22;;;;;;;;;;;;;;;;;;5091461;28;20022;-62
2021/11/03 11:39:49;;;;;;;;;;;;;;;;;;5089321;28;19924;-61
2021/11/03 11:42:18;;;;;;;;;;;;;;;;;;5091327;28;20284;-60
2021/11/03 11:44:45;;;;;;;;;;;;;;;;;;5091018;28;19936;-62
2021/11/03 11:47:12;;;;;;;;;;;;;;;;;;5089463;28;20379;-61
2021/11/03 11:49:39;;;;;;;;;;;;;;;;;;5095522;28;20284;-57
2021/11/03 11:52:06;;;;;;;;;;;;;;;;;;5096319;28;19927;-60
2021/11/03 11:54:33;;;;;;;;;;;;;;;;;;5093320;28;20399;-57
2021/11/03 11:57:00;;;;;;;;;;;;;;;;;;5096022;28;19924;-60
2021/11/03 11:59:28;;;;;;;;;;;;;;;;;;5093124;28;19924;-61
2021/11/03 12:01:55;;;;;;;;;;;;;;;;;;5092266;28;19966;-60
2021/11/03 12:04:22;;;;;;;;;;;;;;;;;;5091262;28;20359;-60
2021/11/03 12:06:48;;;;;;;;;;;;;;;;;;5094371;28;20003;-59
2021/11/03 12:09:15;;;;;;;;;;;;;;;;;;5095711;28;19931;-60
2021/11/03 12:11:42;;;;;;;;;;;;;;;;;;5095081;28;19924;-61
2021/11/03 12:14:09;;;;;;;;;;;;;;;;;;5094216;28;19924;-61
2021/11/03 12:16:36;;;;;;;;;;;;;;;;;;5090488;28;20540;-59
2021/11/03 12:19:03;;;;;;;;;;;;;;;;;;5095793;28;19924;-61
2021/11/03 12:21:31;;;;;;;;;;;;;;;;;;5092795;28;19924;-59
2021/11/03 12:23:58;;;;;;;;;;;;;;;;;;5092420;28;20338;-59
2021/11/03 12:26:25;;;;;;;;;;;;;;;;;;5088854;28;19962;-60
2021/11/03 12:28:52;;;;;;;;;;;;;;;;;;5086250;28;19981;-60
2021/11/03 12:31:19;;;;;;;;;;;;;;;;;;5079197;28;19931;-59
2021/11/03 12:33:46;;;;;;;;;;;;;;;;;;5085195;28;20384;-59
2021/11/03 12:36:13;;;;;;;;;;;;;;;;;;5079188;28;19938;-60
2021/11/03 12:38:40;;;;;;;;;;;;;;;;;;5088231;28;20328;-59
2021/11/03 12:41:07;;;;;;;;;;;;;;;;;;5080233;28;19924;-60
2021/11/03 12:43:34;;;;;;;;;;;;;;;;;;5089952;28;19930;-57
2021/11/03 12:46:02;;;;;;;;;;;;;;;;;;5093269;28;19974;-62
2021/11/03 12:48:29;;;;;;;;;;;;;;;;;;5092279;28;19974;-59
2021/11/03 12:50:56;;;;;;;;;;;;;;;;;;5090982;28;19928;-60
2021/11/03 12:53:23;;;;;;;;;;;;;;;;;;5085352;28;19935;-60
2021/11/03 12:55:50;;;;;;;;;;;;;;;;;;5083963;28;19924;-60
2021/11/03 12:58:17;;;;;;;;;;;;;;;;;;5087825;28;19967;-62
2021/11/03 13:00:44;;;;;;;;;;;;;;;;;;5082763;28;19924;-61
2021/11/03 13:03:11;;;;;;;;;;;;;;;;;;5086596;28;19924;-62
2021/11/03 13:05:38;;;;;;;;;;;;;;;;;;5082884;28;19998;-61
2021/11/03 13:08:06;;;;;;;;;;;;;;;;;;5082770;28;19971;-61
2021/11/03 13:10:33;;;;;;;;;;;;;;;;;;5084843;28;19977;-62
2021/11/03 13:13:00;;;;;;;;;;;;;;;;;;5087165;28;20307;-60
2021/11/03 13:15:27;;;;;;;;;;;;;;;;;;5084661;28;19935;-63
2021/11/03 13:17:54;;;;;;;;;;;;;;;;;;5088995;28;19924;-61
2021/11/03 13:20:21;;;;;;;;;;;;;;;;;;5083324;28;20391;-60
2021/11/03 13:22:47;;;;;;;;;;;;;;;;;;5081721;28;20225;-61
2021/11/03 13:25:14;;;;;;;;;;;;;;;;;;5088299;28;19939;-60
2021/11/03 13:27:41;;;;;;;;;;;;;;;;;;5082126;28;20121;-60
2021/11/03 13:30:08;;;;;;;;;;;;;;;;;;5083443;28;20393;-60
2021/11/03 13:32:35;;;;;;;;;;;;;;;;;;5084835;28;19986;-62
2021/11/03 13:35:03;;;;;;;;;;;;;;;;;;5083401;28;20403;-62
2021/11/03 13:37:30;;;;;;;;;;;;;;;;;;5089863;28;20375;-59
2021/11/03 13:39:57;;;;;;;;;;;;;;;;;;5085014;28;19928;-59
2021/11/03 13:42:24;;;;;;;;;;;;;;;;;;5089279;28;19924;-60
2021/11/03 13:44:51;;;;;;;;;;;;;;;;;;5086033;28;19932;-61
2021/11/03 13:47:18;;;;;;;;;;;;;;;;;;5086933;28;19936;-62
2021/11/03 13:49:45;;;;;;;;;;;;;;;;;;5087822;28;19928;-59
2021/11/03 13:52:14;;;;;;;;;;;;;;;;;;5088739;28;19950;-60
2021/11/03 13:54:41;;;;;;;;;;;;;;;;;;5086034;28;19924;-62
2021/11/03 13:57:08;;;;;;;;;;;;;;;;;;5092505;28;19946;-62
2021/11/03 13:59:35;;;;;;;;;;;;;;;;;;5090276;28;19924;-60
2021/11/03 14:02:02;;;;;;;;;;;;;;;;;;5090632;28;19964;-62
2021/11/03 14:04:30;;;;;;;;;;;;;;;;;;5093037;28;19931;-58
2021/11/03 14:06:57;;;;;;;;;;;;;;;;;;5094559;28;19932;-62
2021/11/03 14:09:24;;;;;;;;;;;;;;;;;;5101468;28;20503;-61
2021/11/03 14:11:51;;;;;;;;;;;;;;;;;;5097346;28;19925;-57
2021/11/03 14:14:18;;;;;;;;;;;;;;;;;;5095703;28;20011;-61
2021/11/03 14:16:45;;;;;;;;;;;;;;;;;;5086881;28;19928;-60
2021/11/03 14:19:12;;;;;;;;;;;;;;;;;;5085825;28;19931;-61
2021/11/03 14:21:39;;;;;;;;;;;;;;;;;;5083989;28;20391;-62
2021/11/03 14:24:06;;;;;;;;;;;;;;;;;;5088935;28;19924;-60
2021/11/03 14:26:33;;;;;;;;;;;;;;;;;;5091058;28;19932;-61
2021/11/03 14:29:00;;;;;;;;;;;;;;;;;;5099145;28;19935;-59
2021/11/03 14:31:27;;;;;;;;;;;;;;;;;;5097844;28;20388;-59
2021/11/03 14:33:54;;;;;;;;;;;;;;;;;;5101416;28;20270;-59
2021/11/03 14:36:22;;;;;;;;;;;;;;;;;;5099658;28;19927;-59
2021/11/03 14:38:49;;;;;;;;;;;;;;;;;;5096791;28;19938;-60
2021/11/03 14:41:16;;;;;;;;;;;;;;;;;;5096506;28;20309;-63
2021/11/03 14:43:43;;;;;;;;;;;;;;;;;;5097730;28;19924;-60
2021/11/03 14:46:10;;;;;;;;;;;;;;;;;;5100437;28;20238;-59
2021/11/03 14:48:36;;;;;;;;;;;;;;;;;;5102797;28;19934;-58
2021/11/03 14:51:03;;;;;;;;;;;;;;;;;;5100473;28;19924;-60
2021/11/03 14:53:30;;;;;;;;;;;;;;;;;;5102066;28;19924;-61
2021/11/03 14:55:57;;;;;;;;;;;;;;;;;;5097416;28;20018;-61
2021/11/03 14:58:24;;;;;;;;;;;;;;;;;;5099923;28;19931;-59
2021/11/03 15:00:51;;;;;;;;;;;;;;;;;;5097401;28;19935;-61
2021/11/03 15:03:18;;;;;;;;;;;;;;;;;;5098699;28;19967;-61
2021/11/03 15:05:45;;;;;;;;;;;;;;;;;;5099690;28;20379;-60
2021/11/03 15:08:12;;;;;;;;;;;;;;;;;;5098613;28;19928;-60
2021/11/03 15:10:39;;;;;;;;;;;;;;;;;;5099475;28;20007;-59
2021/11/03 15:13:06;;;;;;;;;;;;;;;;;;5098591;28;19932;-60
2021/11/03 15:15:33;;;;;;;;;;;;;;;;;;5099472;28;20031;-57
2021/11/03 15:18:00;;;;;;;;;;;;;;;;;;5097766;28;19959;-59
2021/11/03 15:20:27;;;;;;;;;;;;;;;;;;5095641;28;20210;-60
2021/11/03 15:22:54;;;;;;;;;;;;;;;;;;5099257;28;19928;-58
2021/11/03 15:25:21;;;;;;;;;;;;;;;;;;5099019;28;19924;-62
2021/11/03 15:27:48;;;;;;;;;;;;;;;;;;5098439;28;20570;-59
2021/11/03 15:30:15;;;;;;;;;;;;;;;;;;5082559;28;19928;-59
2021/11/03 15:32:42;;;;;;;;;;;;;;;;;;5085165;28;20003;-59
2021/11/03 15:35:09;;;;;;;;;;;;;;;;;;5084500;28;20414;-59
2021/11/03 15:37:39;;;;;;;;;;;;;;;;;;5084292;28;19931;-57
2021/11/03 15:40:06;;;;;;;;;;;;;;;;;;5081888;28;20505;-61
2021/11/03 15:42:33;;;;;;;;;;;;;;;;;;5084823;28;19931;-60
2021/11/03 15:45:00;;;;;;;;;;;;;;;;;;5080339;22;19928;-70
2021/11/03 15:47:27;;;;;;;;;;;;;;;;;;5066921;28;20039;-67
2021/11/03 15:49:54;;;;;;;;;;;;;;;;;;5065135;28;20284;-66
2021/11/03 15:52:21;;;;;;;;;;;;;;;;;;5063525;28;19932;-67
2021/11/03 15:54:48;;;;;;;;;;;;;;;;;;5062171;28;19931;-67
2021/11/03 15:57:15;;;;;;;;;;;;;;;;;;5066635;28;19929;-66
2021/11/03 15:59:44;;;;;;;;;;;;;;;;;;5055024;28;20607;-65
2021/11/03 16:02:11;;;;;;;;;;;;;;;;;;5057426;28;21340;-68
2021/11/03 16:04:38;;;;;;;;;;;;;;;;;;5067779;28;19925;-68
2021/11/03 16:07:05;;;;;;;;;;;;;;;;;;5065311;28;19925;-68
2021/11/03 16:09:32;;;;;;;;;;;;;;;;;;5065016;28;19934;-67
2021/11/03 16:11:59;;;;;;;;;;;;;;;;;;5068037;28;20392;-67
2021/11/03 16:14:26;;;;;;;;;;;;;;;;;;5063712;28;19940;-67
2021/11/03 16:16:52;;;;;;;;;;;;;;;;;;5061541;28;19935;-67
2021/11/03 16:19:19;;;;;;;;;;;;;;;;;;5064684;28;19932;-66
2021/11/03 16:21:48;;;;;;;;;;;;;;;;;;5066436;28;19924;-67
2021/11/03 16:24:15;;;;;;;;;;;;;;;;;;5063788;28;20016;-66
2021/11/03 16:26:42;;;;;;;;;;;;;;;;;;5063579;28;19979;-67
2021/11/03 16:29:09;;;;;;;;;;;;;;;;;;5064831;28;19985;-67
2021/11/03 16:31:36;;;;;;;;;;;;;;;;;;5064757;28;20015;-68
2021/11/03 16:34:03;;;;;;;;;;;;;;;;;;5068182;28;20296;-67
2021/11/03 16:36:30;;;;;;;;;;;;;;;;;;5061520;28;20400;-68
2021/11/03 16:38:57;;;;;;;;;;;;;;;;;;5063184;28;19924;-67
2021/11/03 16:41:24;;;;;;;;;;;;;;;;;;5065524;28;19931;-68
2021/11/03 16:43:51;;;;;;;;;;;;;;;;;;5068973;28;19931;-68